Time;durP1;ratioP1;P1;durP2;ratioP2;P2;SDS_P1;SDS_P2;PMS_P1;PMS_P2;Temp;Humidity;BMP_temperature;BMP_pressure;BME280_temperature;BME280_humidity;BME280_pressure;Samples;Min_cycle;Max_cycle;Signal;HPM_P1;HPM_P2
2022/11/22 00:00:58;;;;;;;25.80;15.32;;;3.40;99.90;;;;;;5105647;28;20134;-80
2022/11/22 00:03:23;;;;;;;23.83;13.82;;;3.50;99.90;;;;;;5104430;28;20045;-82
2022/11/22 00:05:49;;;;;;;23.63;15.60;;;3.50;99.90;;;;;;5102726;28;20043;-81
2022/11/22 00:08:14;;;;;;;22.38;14.05;;;3.50;99.90;;;;;;5105841;28;20056;-81
2022/11/22 00:10:40;;;;;;;22.00;13.82;;;3.50;99.90;;;;;;5090651;28;20047;-81
2022/11/22 00:13:06;;;;;;;20.92;13.40;;;3.50;99.90;;;;;;5108830;28;20459;-81
2022/11/22 00:15:31;;;;;;;23.73;12.98;;;3.50;99.90;;;;;;5109528;28;20040;-81
2022/11/22 00:17:57;;;;;;;20.98;13.27;;;3.50;99.90;;;;;;5108590;28;20891;-81
2022/11/22 00:20:23;;;;;;;21.75;12.65;;;3.60;99.90;;;;;;5103368;28;20048;-81
2022/11/22 00:22:48;;;;;;;22.35;13.18;;;3.60;99.90;;;;;;5097959;28;20071;-81
2022/11/22 00:25:14;;;;;;;19.95;12.77;;;3.60;99.90;;;;;;5092808;28;20077;-81
2022/11/22 00:27:40;;;;;;;22.20;13.45;;;3.60;99.90;;;;;;5103230;28;20039;-82
2022/11/22 00:30:07;;;;;;;21.60;13.23;;;3.70;99.90;;;;;;5105098;28;20561;-81
2022/11/22 00:32:33;;;;;;;21.15;13.00;;;3.60;99.90;;;;;;5106823;28;20169;-81
2022/11/22 00:34:58;;;;;;;20.20;13.10;;;3.70;99.90;;;;;;5108418;28;20127;-81
2022/11/22 00:37:24;;;;;;;21.50;13.15;;;3.70;99.90;;;;;;5108692;28;20458;-81
2022/11/22 00:39:50;;;;;;;19.65;12.20;;;3.70;99.90;;;;;;5108111;28;20035;-82
2022/11/22 00:42:15;;;;;;;22.83;13.27;;;4.60;99.90;;;;;;5106753;28;20035;-81
2022/11/22 00:44:41;;;;;;;21.10;12.70;;;3.70;99.90;;;;;;5108474;28;20082;-81
2022/11/22 00:47:06;;;;;;;21.58;12.95;;;3.70;99.90;;;;;;5106779;28;20043;-81
2022/11/22 00:49:32;;;;;;;24.05;13.70;;;3.80;99.90;;;;;;5109581;28;20138;-81
2022/11/22 00:51:57;;;;;;;21.25;13.70;;;3.70;99.90;;;;;;5108235;28;20047;-81
2022/11/22 00:54:23;;;;;;;22.75;14.35;;;3.80;99.90;;;;;;5108825;28;20040;-81
2022/11/22 00:56:48;;;;;;;22.80;12.80;;;3.70;99.90;;;;;;5105220;28;20062;-81
2022/11/22 00:59:14;;;;;;;23.73;14.48;;;3.70;99.90;;;;;;5108342;28;20063;-82
2022/11/22 01:01:40;;;;;;;19.75;13.60;;;3.80;99.90;;;;;;5107565;28;20050;-82
2022/11/22 01:04:06;;;;;;;20.80;13.23;;;3.70;99.90;;;;;;5090251;28;20047;-81
2022/11/22 01:06:32;;;;;;;24.38;14.90;;;3.60;99.90;;;;;;5091357;28;20488;-82
2022/11/22 01:08:57;;;;;;;23.75;13.98;;;3.60;99.90;;;;;;5106076;28;20056;-81
2022/11/22 01:11:23;;;;;;;24.02;13.70;;;3.60;99.90;;;;;;5097492;28;20047;-82
2022/11/22 01:13:48;;;;;;;22.23;13.82;;;3.60;99.90;;;;;;5101257;28;20055;-81
2022/11/22 01:16:15;;;;;;;23.65;14.88;;;3.60;99.90;;;;;;5107100;28;20047;-81
2022/11/22 01:18:41;;;;;;;23.23;13.55;;;3.60;99.90;;;;;;5103555;28;20421;-82
2022/11/22 01:21:06;;;;;;;22.65;13.43;;;3.60;99.90;;;;;;5091216;28;20040;-82
2022/11/22 01:23:33;;;;;;;26.25;15.13;;;3.60;99.90;;;;;;5106657;28;20047;-81
2022/11/22 01:25:59;;;;;;;23.30;14.48;;;3.50;99.90;;;;;;5090617;28;20564;-82
2022/11/22 01:28:25;;;;;;;27.05;15.02;;;3.50;99.90;;;;;;5105768;28;20044;-81
2022/11/22 01:30:52;;;;;;;24.17;14.15;;;3.50;99.90;;;;;;5106820;28;20119;-82
2022/11/22 01:33:18;;;;;;;23.20;14.77;;;3.50;99.90;;;;;;5107083;28;20096;-81
2022/11/22 01:35:44;;;;;;;24.77;15.25;;;3.50;99.90;;;;;;5095769;28;20126;-82
2022/11/22 01:38:10;;;;;;;26.17;15.85;;;3.50;99.90;;;;;;5117896;27;20134;-82
2022/11/22 01:40:36;;;;;;;24.23;14.70;;;3.50;99.90;;;;;;5109588;28;20131;-81
2022/11/22 01:43:02;;;;;;;23.50;15.00;;;3.60;99.90;;;;;;5105461;28;20489;-81
2022/11/22 01:45:30;;;;;;;25.77;14.63;;;3.70;99.90;;;;;;5106872;28;20138;-81
2022/11/22 01:48:12;;;;;;;27.17;15.20;;;4.80;99.90;;;;;;5106096;28;20528;-81
2022/11/22 01:50:41;;;;;;;26.03;15.43;;;3.60;99.90;;;;;;5082454;28;20051;-81
2022/11/22 01:53:17;;;;;;;26.50;15.00;;;3.60;99.90;;;;;;5089817;28;20562;-81
2022/11/22 01:55:44;;;;;;;28.77;15.25;;;3.60;99.90;;;;;;5105762;28;20043;-81
2022/11/22 01:58:11;;;;;;;24.75;14.50;;;3.60;99.90;;;;;;5104391;28;20039;-82
2022/11/22 02:00:37;;;;;;;26.60;15.15;;;3.60;99.90;;;;;;5108513;28;20051;-81
2022/11/22 02:03:08;;;;;;;24.92;14.38;;;3.60;99.90;;;;;;5106131;28;20066;-82
2022/11/22 02:05:34;;;;;;;27.83;14.68;;;3.60;99.90;;;;;;5103873;28;20055;-82
2022/11/22 02:08:17;;;;;;;26.77;14.02;;;3.60;99.90;;;;;;5105188;28;20703;-82
2022/11/22 02:10:45;;;;;;;;;;;3.60;99.90;;;;;;5107035;28;20126;-81
2022/11/22 02:13:13;;;;;;;25.45;14.65;;;3.60;99.90;;;;;;5106192;28;19930;-82
2022/11/22 02:15:39;;;;;;;23.00;14.70;;;3.60;99.90;;;;;;5094192;28;20035;-82
2022/11/22 02:18:04;;;;;;;24.95;14.73;;;3.60;99.90;;;;;;5105457;28;20443;-82
2022/11/22 02:20:30;;;;;;;26.80;14.77;;;3.60;99.90;;;;;;5107458;28;20121;-82
2022/11/22 02:23:08;;;;;;;26.42;15.38;;;3.70;99.90;;;;;;5105550;28;20036;-81
2022/11/22 02:25:39;;;;;;;27.83;15.80;;;3.70;99.90;;;;;;5108768;28;20055;-81
2022/11/22 02:28:05;;;;;;;25.20;14.57;;;3.70;99.90;;;;;;5105802;28;20504;-81
2022/11/22 02:30:31;;;;;;;26.63;14.77;;;3.70;99.90;;;;;;5107126;28;20043;-81
2022/11/22 02:32:56;;;;;;;23.02;14.27;;;3.70;99.90;;;;;;5107835;28;20051;-81
2022/11/22 02:35:24;;;;;;;22.73;13.30;;;3.70;99.90;;;;;;5095137;28;20051;-81
2022/11/22 02:38:09;;;;;;;25.13;15.20;;;3.70;99.90;;;;;;5100511;28;20044;-82
2022/11/22 02:40:49;;;;;;;26.67;15.02;;;3.70;99.90;;;;;;5108182;28;20048;-81
2022/11/22 02:43:21;;;;;;;23.88;13.80;;;3.80;99.90;;;;;;5089522;28;20073;-82
2022/11/22 02:45:46;;;;;;;24.30;14.52;;;3.80;99.90;;;;;;5108236;28;20039;-82
2022/11/22 02:48:14;;;;;;;27.15;15.13;;;3.80;99.90;;;;;;5106771;28;20039;-81
2022/11/22 02:50:40;;;;;;;25.13;14.95;;;3.80;99.90;;;;;;5104135;28;20040;-82
2022/11/22 02:53:08;;;;;;;22.52;14.02;;;3.80;99.90;;;;;;5104194;27;20101;-82
2022/11/22 02:55:34;;;;;;;27.38;14.70;;;3.80;99.90;;;;;;5091730;28;20091;-81
2022/11/22 02:57:59;;;;;;;24.60;14.07;;;3.80;99.90;;;;;;5089093;28;20040;-81
2022/11/22 03:00:25;;;;;;;25.42;14.38;;;3.90;99.90;;;;;;5089817;28;20044;-81
2022/11/22 03:02:51;;;;;;;24.80;15.13;;;3.90;99.90;;;;;;5105879;28;20062;-82
2022/11/22 03:05:17;;;;;;;26.42;14.60;;;3.90;99.90;;;;;;5106203;28;20047;-81
2022/11/22 03:07:42;;;;;;;24.65;15.00;;;3.90;99.90;;;;;;5101648;28;20040;-81
2022/11/22 03:10:09;;;;;;;27.70;14.60;;;3.90;99.90;;;;;;5086784;28;20036;-81
2022/11/22 03:12:34;;;;;;;22.58;14.10;;;3.90;99.90;;;;;;5102636;28;20511;-80
2022/11/22 03:15:00;;;;;;;26.27;13.88;;;4.00;99.90;;;;;;5106762;28;20036;-80
2022/11/22 03:17:25;;;;;;;22.38;13.90;;;4.00;99.90;;;;;;5089515;28;20035;-80
2022/11/22 03:19:51;;;;;;;23.80;13.88;;;4.00;99.90;;;;;;5090038;28;20113;-80
2022/11/22 03:22:16;;;;;;;26.90;14.18;;;4.00;99.90;;;;;;5105710;28;20063;-81
2022/11/22 03:24:42;;;;;;;27.80;15.43;;;4.00;99.90;;;;;;5089720;28;20036;-81
2022/11/22 03:27:07;;;;;;;23.95;14.57;;;4.00;99.90;;;;;;5105516;28;20417;-81
2022/11/22 03:29:33;;;;;;;26.48;14.55;;;4.00;99.90;;;;;;5107425;28;20040;-80
2022/11/22 03:31:58;;;;;;;21.88;13.25;;;4.00;99.90;;;;;;5105316;28;20048;-80
2022/11/22 03:34:24;;;;;;;21.25;13.25;;;4.10;99.90;;;;;;5105898;28;20124;-81
2022/11/22 03:36:50;;;;;;;21.90;13.13;;;4.10;99.90;;;;;;5089624;28;20512;-80
2022/11/22 03:39:15;;;;;;;26.83;14.70;;;4.10;99.90;;;;;;5105934;28;20059;-80
2022/11/22 03:41:41;;;;;;;24.13;14.05;;;4.10;99.90;;;;;;5086090;28;20028;-81
2022/11/22 03:44:06;;;;;;;22.88;13.70;;;4.10;99.90;;;;;;5107290;28;20048;-80
2022/11/22 03:46:32;;;;;;;25.30;14.63;;;4.10;99.90;;;;;;5110639;28;20067;-80
2022/11/22 03:48:57;;;;;;;21.70;12.85;;;4.10;99.90;;;;;;5110254;28;20039;-80
2022/11/22 03:51:23;;;;;;;20.58;13.30;;;4.10;99.90;;;;;;5108610;28;20075;-81
2022/11/22 03:53:49;;;;;;;28.75;14.80;;;4.10;99.90;;;;;;5091515;28;20055;-80
2022/11/22 03:56:23;;;;;;;24.00;13.32;;;4.20;99.90;;;;;;5111165;28;20047;-80
2022/11/22 03:58:52;;;;;;;23.75;13.27;;;4.60;99.90;;;;;;5109089;28;20054;-80
2022/11/22 04:01:18;;;;;;;22.95;13.73;;;4.20;99.90;;;;;;5109903;28;20133;-82
2022/11/22 04:03:43;;;;;;;22.75;13.40;;;4.20;99.90;;;;;;5108722;28;20505;-81
2022/11/22 04:06:09;;;;;;;26.65;13.20;;;4.20;99.90;;;;;;5106515;28;20581;-81
2022/11/22 04:08:34;;;;;;;25.02;13.93;;;4.20;99.90;;;;;;5109047;28;20047;-81
2022/11/22 04:11:20;;;;;;;23.65;13.57;;;4.30;99.90;;;;;;5109396;28;20085;-81
2022/11/22 04:16:36;;;;;;;21.70;12.80;;;5.20;99.90;;;;;;5110263;28;20059;-81
2022/11/22 04:19:16;;;;;;;20.23;13.05;;;4.30;99.90;;;;;;5108344;28;20485;-82
2022/11/22 04:21:44;;;;;;;24.17;13.32;;;4.30;99.90;;;;;;5108460;28;20069;-81
2022/11/22 04:26:56;;;;;;;26.02;14.25;;;4.30;99.90;;;;;;5110262;28;20062;-82
2022/11/22 04:29:25;;;;;;;23.42;13.80;;;4.30;99.90;;;;;;5092311;28;20046;-81
2022/11/22 04:34:35;;;;;;;22.85;12.77;;;4.40;99.90;;;;;;5103904;28;20079;-81
2022/11/22 04:37:02;;;;;;;20.90;13.77;;;4.40;99.90;;;;;;5109358;28;20079;-82
2022/11/22 04:39:36;;;;;;;20.58;14.18;;;4.40;99.90;;;;;;5109657;28;20044;-82
2022/11/22 04:44:46;;;;;;;22.70;13.30;;;4.40;99.90;;;;;;5090754;28;20052;-81
2022/11/22 04:50:00;;;;;;;22.85;13.65;;;4.40;99.90;;;;;;5108707;28;20087;-81
2022/11/22 04:55:27;;;;;;;24.88;13.10;;;4.50;99.90;;;;;;5109863;28;20051;-81
2022/11/22 04:57:53;;;;;;;21.27;12.23;;;3.70;99.90;;;;;;5108591;28;20058;-80
2022/11/22 05:00:21;;;;;;;21.83;12.77;;;5.50;99.90;;;;;;5108156;28;20548;-81
2022/11/22 05:02:46;;;;;;;18.95;12.70;;;4.50;99.90;;;;;;5106219;28;20093;-81
2022/11/22 05:05:12;;;;;;;19.83;12.00;;;4.50;99.90;;;;;;5089057;28;20052;-81
2022/11/22 05:07:49;;;;;;;20.77;13.52;;;4.80;99.90;;;;;;5082478;28;20063;-82
2022/11/22 05:10:25;;;;;;;20.50;13.43;;;4.60;99.90;;;;;;5107977;28;20060;-81
2022/11/22 05:12:51;;;;;;;23.65;13.85;;;5.70;99.90;;;;;;5105716;28;20699;-81
2022/11/22 05:15:34;;;;;;;20.50;12.10;;;4.60;99.90;;;;;;5109507;28;20043;-82
2022/11/22 05:17:59;;;;;;;26.20;12.77;;;4.60;99.90;;;;;;5107024;28;20039;-81
2022/11/22 05:20:25;;;;;;;20.00;13.07;;;4.60;99.90;;;;;;5107028;28;20442;-80
2022/11/22 05:25:34;;;;;;;18.33;12.00;;;4.60;99.90;;;;;;5092018;28;20048;-80
2022/11/22 05:28:00;;;;;;;24.10;13.48;;;4.60;99.90;;;;;;5122335;27;20043;-81
2022/11/22 05:30:25;;;;;;;24.45;13.20;;;4.70;99.90;;;;;;5108629;28;20142;-80
2022/11/22 05:32:53;;;;;;;22.02;13.38;;;4.60;99.90;;;;;;5108469;28;20043;-80
2022/11/22 05:35:18;;;;;;;23.10;12.50;;;4.70;99.90;;;;;;5108207;28;20051;-80
2022/11/22 05:37:44;;;;;;;21.42;12.98;;;4.70;99.90;;;;;;5090966;28;20405;-80
2022/11/22 05:40:10;;;;;;;23.17;12.75;;;4.70;99.90;;;;;;5105085;28;20096;-80
2022/11/22 05:42:36;;;;;;;21.65;13.05;;;4.70;99.90;;;;;;5105826;28;20027;-80
2022/11/22 05:45:02;;;;;;;25.73;13.25;;;4.70;99.90;;;;;;5106078;28;20039;-81
2022/11/22 05:47:27;;;;;;;22.65;13.07;;;4.70;99.90;;;;;;5107638;28;20039;-81
2022/11/22 05:49:53;;;;;;;21.85;12.32;;;4.80;99.90;;;;;;5106192;28;20048;-80
2022/11/22 05:52:18;;;;;;;21.50;13.07;;;4.80;99.90;;;;;;5089533;28;20085;-81
2022/11/22 05:54:44;;;;;;;18.95;11.90;;;4.70;99.90;;;;;;5105136;28;20044;-80
2022/11/22 05:57:09;;;;;;;21.48;11.68;;;4.70;99.90;;;;;;5103091;28;20040;-80
2022/11/22 05:59:35;;;;;;;20.27;11.63;;;4.80;99.90;;;;;;5106642;28;20151;-80
2022/11/22 06:02:00;;;;;;;25.40;13.13;;;4.80;99.90;;;;;;5107799;28;20044;-80
2022/11/22 06:04:26;;;;;;;22.58;12.02;;;4.80;99.90;;;;;;5105791;28;20184;-80
2022/11/22 06:06:51;;;;;;;18.17;11.30;;;4.80;99.90;;;;;;5106779;28;20071;-81
2022/11/22 06:09:17;;;;;;;22.48;12.57;;;4.80;99.90;;;;;;5107309;28;20054;-80
2022/11/22 06:11:42;;;;;;;17.90;11.93;;;4.80;99.90;;;;;;5106166;28;20039;-80
2022/11/22 06:14:08;;;;;;;18.65;12.05;;;4.80;99.90;;;;;;5104583;28;20729;-81
2022/11/22 06:16:33;;;;;;;19.95;11.57;;;4.90;99.90;;;;;;5105770;28;20043;-81
2022/11/22 06:18:59;;;;;;;19.40;10.88;;;4.90;99.90;;;;;;5107794;28;20571;-80
2022/11/22 06:21:25;;;;;;;18.40;11.35;;;4.80;99.90;;;;;;5106296;28;20044;-80
2022/11/22 06:23:52;;;;;;;17.20;10.93;;;4.80;99.90;;;;;;5105804;28;20062;-80
2022/11/22 06:26:22;;;;;;;20.73;11.00;;;4.80;99.90;;;;;;5089284;28;20069;-81
2022/11/22 06:28:49;;;;;;;21.38;11.93;;;4.70;99.90;;;;;;5104418;28;20155;-81
2022/11/22 06:31:20;;;;;;;19.40;10.73;;;4.70;99.90;;;;;;5103649;28;20500;-81
2022/11/22 06:33:46;;;;;;;21.30;11.02;;;4.60;99.90;;;;;;5106818;28;20055;-81
2022/11/22 06:36:20;;;;;;;16.15;10.65;;;4.60;99.90;;;;;;5086990;28;20039;-80
2022/11/22 06:38:46;;;;;;;54.47;13.57;;;4.60;99.90;;;;;;5105231;28;20119;-81
2022/11/22 06:41:17;;;;;;;20.52;11.25;;;4.60;99.90;;;;;;5115706;27;20048;-80
2022/11/22 06:43:45;;;;;;;20.00;11.25;;;4.60;99.90;;;;;;5108102;28;20039;-80
2022/11/22 06:46:11;;;;;;;17.73;10.07;;;4.60;99.90;;;;;;5104696;27;20051;-81
2022/11/22 06:48:38;;;;;;;16.58;9.77;;;4.50;99.90;;;;;;5088188;28;20055;-80
2022/11/22 06:51:12;;;;;;;14.98;8.80;;;4.50;99.90;;;;;;5088502;28;20051;-80
2022/11/22 06:53:38;;;;;;;16.70;9.48;;;4.70;99.90;;;;;;5110927;27;20086;-80
2022/11/22 06:56:14;;;;;;;17.55;9.10;;;4.40;99.90;;;;;;5106978;28;20761;-81
2022/11/22 06:58:40;;;;;;;17.13;9.52;;;4.30;99.90;;;;;;5107322;28;20043;-81
2022/11/22 07:01:20;;;;;;;18.25;9.60;;;4.30;99.90;;;;;;5106686;28;20135;-81
2022/11/22 07:03:46;;;;;;;21.20;9.48;;;4.20;99.90;;;;;;5105347;28;20122;-80
2022/11/22 07:06:13;;;;;;;24.92;10.10;;;4.20;99.90;;;;;;5105992;28;20043;-81
2022/11/22 07:08:40;;;;;;;18.65;9.55;;;4.10;99.90;;;;;;5107152;28;20046;-80
2022/11/22 07:11:14;;;;;;;18.40;9.65;;;4.10;99.90;;;;;;5105996;28;20040;-80
2022/11/22 07:13:40;;;;;;;17.52;9.48;;;4.10;99.90;;;;;;5106207;28;20043;-81
2022/11/22 07:16:07;;;;;;;16.83;9.10;;;4.10;99.90;;;;;;5106162;28;20040;-81
2022/11/22 07:18:33;;;;;;;22.23;9.02;;;4.20;99.90;;;;;;5105882;28;20451;-80
2022/11/22 07:21:04;;;;;;;20.83;8.25;;;4.20;99.90;;;;;;5110359;28;20448;-80
2022/11/22 07:23:29;;;;;;;15.52;8.43;;;4.20;99.90;;;;;;5101196;28;20094;-80
2022/11/22 07:25:55;;;;;;;20.20;8.50;;;4.20;99.90;;;;;;5089812;28;20040;-80
2022/11/22 07:28:21;;;;;;;17.85;8.00;;;4.10;99.90;;;;;;5092659;28;20047;-81
2022/11/22 07:30:47;;;;;;;17.80;8.02;;;4.10;99.90;;;;;;5108728;28;20047;-81
2022/11/22 07:33:12;;;;;;;18.00;7.60;;;4.10;99.90;;;;;;5110095;28;20464;-81
2022/11/22 07:35:38;;;;;;;17.85;7.32;;;4.20;99.90;;;;;;5111204;28;20149;-80
2022/11/22 07:38:04;;;;;;;21.13;8.25;;;4.20;99.90;;;;;;5110792;28;20044;-80
2022/11/22 07:40:29;;;;;;;17.05;8.23;;;4.20;99.90;;;;;;5110844;28;20097;-80
2022/11/22 07:42:55;;;;;;;21.65;8.25;;;4.20;99.90;;;;;;5110168;28;20055;-81
2022/11/22 07:45:23;;;;;;;16.77;7.65;;;4.20;99.90;;;;;;5110007;28;20119;-81
2022/11/22 07:47:49;;;;;;;21.38;7.72;;;4.20;99.90;;;;;;5110068;28;20127;-81
2022/11/22 07:50:15;;;;;;;16.83;7.40;;;4.20;99.90;;;;;;5093505;28;20047;-81
2022/11/22 07:52:40;;;;;;;18.45;7.07;;;4.20;99.90;;;;;;5109115;28;20388;-81
2022/11/22 07:55:06;;;;;;;14.98;6.28;;;4.20;99.90;;;;;;5109772;28;20159;-80
2022/11/22 07:57:32;;;;;;;13.52;6.35;;;4.20;99.90;;;;;;5110089;28;20105;-82
2022/11/22 07:59:58;;;;;;;14.57;6.72;;;4.20;99.90;;;;;;5109388;28;20032;-83
2022/11/22 08:02:25;;;;;;;16.80;6.63;;;;;;;;;;5108153;28;20126;-80
2022/11/22 08:04:51;;;;;;;20.75;6.35;;;4.20;99.90;;;;;;5111630;28;20043;-82
2022/11/22 08:07:17;;;;;;;16.10;5.60;;;4.20;99.90;;;;;;5110647;28;20095;-81
2022/11/22 08:09:42;;;;;;;16.73;5.90;;;4.10;99.90;;;;;;5109989;28;20035;-81
2022/11/22 08:12:08;;;;;;;13.35;5.78;;;4.10;99.90;;;;;;5092409;28;20145;-81
2022/11/22 08:14:34;;;;;;;15.68;5.70;;;4.10;99.90;;;;;;5109686;28;20048;-80
2022/11/22 08:17:00;;;;;;;14.85;5.70;;;4.10;99.90;;;;;;5109056;28;20700;-81
2022/11/22 08:19:25;;;;;;;17.90;5.50;;;4.10;99.90;;;;;;5110526;28;20169;-80
2022/11/22 08:21:51;;;;;;;13.02;5.53;;;4.10;99.90;;;;;;5110878;28;20050;-80
2022/11/22 08:24:16;;;;;;;20.98;5.47;;;4.10;99.90;;;;;;5109735;28;20039;-80
2022/11/22 08:26:42;;;;;;;17.75;5.10;;;4.10;99.90;;;;;;5091552;28;20043;-81
2022/11/22 08:29:10;;;;;;;22.70;5.43;;;4.10;99.90;;;;;;5109250;28;20036;-80
2022/11/22 08:31:37;;;;;;;18.95;5.97;;;4.20;99.90;;;;;;5109976;28;20160;-80
2022/11/22 08:34:03;;;;;;;14.02;4.50;;;4.10;99.90;;;;;;5108859;28;20043;-81
2022/11/22 08:36:29;;;;;;;13.43;4.68;;;4.20;99.90;;;;;;5108596;28;20551;-80
2022/11/22 08:38:55;;;;;;;11.40;4.35;;;4.20;99.90;;;;;;5109592;28;20040;-80
2022/11/22 08:41:21;;;;;;;12.13;4.40;;;4.30;99.90;;;;;;5109071;28;20098;-80
2022/11/22 08:43:52;;;;;;;17.67;4.70;;;4.30;99.90;;;;;;5108100;28;20040;-80
2022/11/22 08:46:18;;;;;;;12.48;4.78;;;4.30;99.90;;;;;;5092449;28;20405;-80
2022/11/22 08:48:44;;;;;;;14.40;4.47;;;4.30;99.90;;;;;;5126636;27;20051;-80
2022/11/22 08:51:11;;;;;;;23.05;4.60;;;4.40;99.90;;;;;;5108881;28;20055;-80
2022/11/22 08:53:39;;;;;;;15.15;4.25;;;4.50;99.90;;;;;;5109436;28;20413;-80
2022/11/22 08:56:08;;;;;;;11.18;3.95;;;4.50;99.90;;;;;;5109030;28;20151;-80
2022/11/22 08:58:34;;;;;;;11.20;3.72;;;4.50;99.90;;;;;;5108699;28;20077;-80
2022/11/22 09:01:09;;;;;;;12.70;4.18;;;4.60;99.90;;;;;;5108153;28;20044;-79
2022/11/22 09:03:35;;;;;;;15.10;4.28;;;4.60;99.90;;;;;;5107166;28;20529;-79
2022/11/22 09:06:02;;;;;;;16.50;5.28;;;4.70;99.90;;;;;;5107947;28;20075;-79
2022/11/22 09:08:28;;;;;;;10.65;3.78;;;5.00;99.90;;;;;;5108383;28;20133;-79
2022/11/22 09:10:53;;;;;;;15.77;4.13;;;4.80;99.90;;;;;;5105729;27;20411;-80
2022/11/22 09:13:19;;;;;;;18.40;5.50;;;4.90;99.90;;;;;;5108510;27;20039;-79
2022/11/22 09:15:45;;;;;;;22.25;4.53;;;5.00;99.90;;;;;;5108128;28;20071;-79
2022/11/22 09:18:11;;;;;;;18.48;5.45;;;5.20;99.90;;;;;;5106898;28;20059;-80
2022/11/22 09:20:36;;;;;;;17.75;5.30;;;5.30;99.90;;;;;;5108958;27;20565;-80
2022/11/22 09:23:03;;;;;;;14.30;4.15;;;5.40;99.90;;;;;;5108796;27;20100;-80
2022/11/22 09:25:28;;;;;;;11.82;4.07;;;5.40;99.90;;;;;;5087688;28;20052;-80
2022/11/22 09:27:54;;;;;;;12.43;3.83;;;5.50;99.90;;;;;;5104848;27;20638;-80
2022/11/22 09:30:20;;;;;;;10.77;3.83;;;5.50;99.90;;;;;;5107917;28;20416;-80
2022/11/22 09:32:46;;;;;;;12.13;4.95;;;5.60;99.90;;;;;;5109834;28;20131;-79
2022/11/22 09:35:11;;;;;;;12.80;4.47;;;6.70;99.90;;;;;;5108488;28;20146;-80
2022/11/22 09:37:37;;;;;;;12.95;4.20;;;5.70;99.90;;;;;;5108237;28;20043;-80
2022/11/22 09:40:03;;;;;;;15.85;3.85;;;5.80;99.90;;;;;;5107766;27;20036;-80
2022/11/22 09:43:00;;;;;;;16.20;4.05;;;5.90;99.90;;;;;;5105650;28;20051;-80
2022/11/22 09:45:44;;;;;;;9.88;3.47;;;6.00;99.90;;;;;;5111216;27;20042;-80
2022/11/22 09:48:16;;;;;;;11.00;3.47;;;6.00;99.90;;;;;;5109409;28;20506;-80
2022/11/22 09:50:55;;;;;;;10.53;3.70;;;6.10;99.90;;;;;;5108263;28;20118;-80
2022/11/22 09:53:31;;;;;;;10.07;3.42;;;6.10;99.90;;;;;;5108603;28;20124;-81
2022/11/22 09:56:01;;;;;;;13.40;4.35;;;6.10;99.90;;;;;;5093113;27;20521;-78
2022/11/22 09:58:51;;;;;;;11.48;3.75;;;6.20;99.90;;;;;;5129703;27;20593;-79
2022/11/22 10:01:25;;;;;;;11.70;3.10;;;7.00;99.90;;;;;;5090990;28;20055;-79
2022/11/22 10:04:05;;;;;;;9.45;3.25;;;6.30;99.90;;;;;;5090647;28;20040;-79
2022/11/22 10:06:38;;;;;;;10.55;3.10;;;6.30;99.90;;;;;;5108057;28;20051;-80
2022/11/22 10:09:11;;;;;;;10.90;3.00;;;6.40;99.90;;;;;;5090523;28;20649;-79
2022/11/22 10:12:05;;;;;;;9.00;2.90;;;6.40;99.90;;;;;;5110222;27;20526;-79
2022/11/22 10:14:43;;;;;;;12.35;3.20;;;6.50;99.90;;;;;;5107773;27;20050;-79
2022/11/22 10:17:34;;;;;;;5.97;2.90;;;6.50;99.90;;;;;;5075075;28;20048;-79
2022/11/22 10:20:05;;;;;;;13.25;3.15;;;6.50;99.90;;;;;;5107776;28;20189;-79
2022/11/22 10:22:32;;;;;;;8.60;3.35;;;6.60;99.90;;;;;;5107276;28;20093;-79
2022/11/22 10:24:59;;;;;;;9.00;3.22;;;6.60;99.90;;;;;;5106278;28;20039;-79
2022/11/22 10:27:31;;;;;;;6.50;3.58;;;6.70;99.90;;;;;;5107690;28;20043;-79
2022/11/22 10:30:05;;;;;;;8.60;3.42;;;6.70;99.90;;;;;;5106899;28;20053;-79
2022/11/22 10:32:51;;;;;;;9.55;3.05;;;6.70;99.90;;;;;;5090241;28;20051;-79
2022/11/22 10:35:47;;;;;;;8.85;2.45;;;6.80;99.90;;;;;;5106299;28;20055;-79
2022/11/22 10:38:34;;;;;;;6.32;2.90;;;6.90;99.90;;;;;;5106898;28;20049;-79
2022/11/22 10:41:14;;;;;;;5.15;1.90;;;7.00;99.90;;;;;;5104619;28;20043;-79
2022/11/22 10:44:01;;;;;;;4.60;2.10;;;7.00;99.90;;;;;;5088253;28;20036;-78
2022/11/22 10:46:38;;;;;;;8.90;2.90;;;7.10;99.90;;;;;;5086684;28;20052;-79
2022/11/22 10:49:27;;;;;;;8.05;2.25;;;7.10;99.90;;;;;;5088416;28;20056;-79
2022/11/22 10:52:17;;;;;;;7.07;2.47;;;7.10;99.90;;;;;;5085856;28;20044;-79
2022/11/22 10:54:46;;;;;;;9.32;3.03;;;7.10;99.90;;;;;;5086394;28;20127;-79
2022/11/22 10:57:34;;;;;;;8.75;3.40;;;7.20;99.90;;;;;;5102039;28;20070;-79
2022/11/22 11:00:18;;;;;;;5.45;2.95;;;7.20;99.90;;;;;;5105929;28;20044;-78
2022/11/22 11:03:10;;;;;;;5.88;2.40;;;7.20;99.90;;;;;;5085358;28;20056;-81
2022/11/22 11:05:50;;;;;;;7.80;2.57;;;7.30;99.90;;;;;;5087756;28;20083;-79
2022/11/22 11:08:41;;;;;;;10.48;3.40;;;7.30;99.90;;;;;;5087612;28;20059;-78
2022/11/22 11:11:07;;;;;;;8.88;3.85;;;7.30;99.90;;;;;;5092871;28;20048;-78
2022/11/22 11:13:43;;;;;;;12.00;5.70;;;7.50;99.90;;;;;;5107799;28;20359;-79
2022/11/22 11:16:12;;;;;;;8.57;3.25;;;7.40;99.90;;;;;;5102643;28;20055;-78
2022/11/22 11:19:04;;;;;;;5.60;2.97;;;7.30;99.90;;;;;;5100704;28;20489;-78
2022/11/22 11:21:30;;;;;;;5.22;3.15;;;7.50;99.90;;;;;;5100885;28;20047;-78
2022/11/22 11:23:56;;;;;;;9.95;3.15;;;7.30;99.90;;;;;;5105433;28;20047;-78
2022/11/22 11:26:31;;;;;;;11.30;4.15;;;7.40;99.90;;;;;;5103698;28;20048;-78
2022/11/22 11:29:16;;;;;;;8.35;2.70;;;7.40;99.90;;;;;;5104719;28;20039;-78
2022/11/22 11:31:46;;;;;;;6.22;2.22;;;7.30;99.90;;;;;;5106974;28;20047;-78
2022/11/22 11:34:24;;;;;;;6.95;2.58;;;7.40;99.90;;;;;;5105482;28;20104;-78
2022/11/22 11:36:52;;;;;;;7.95;2.22;;;7.50;99.90;;;;;;5104452;28;20089;-78
2022/11/22 11:39:26;;;;;;;7.30;2.47;;;7.30;99.90;;;;;;5103473;28;20048;-78
2022/11/22 11:41:52;;;;;;;6.43;2.38;;;7.60;99.90;;;;;;5105531;28;20849;-78
2022/11/22 11:44:30;;;;;;;8.43;2.90;;;7.50;99.90;;;;;;5103359;28;20047;-78
2022/11/22 11:46:56;;;;;;;8.73;2.40;;;7.60;99.90;;;;;;5103468;28;20074;-78
2022/11/22 11:49:33;;;;;;;8.80;2.15;;;7.80;99.90;;;;;;5076910;28;20044;-79
2022/11/22 11:52:07;;;;;;;8.57;2.33;;;6.80;99.90;;;;;;5099500;28;20438;-79
2022/11/22 11:54:44;;;;;;;6.60;2.00;;;7.80;99.90;;;;;;5104142;28;20067;-78
2022/11/22 11:57:13;;;;;;;4.70;1.90;;;7.50;99.90;;;;;;5103730;28;20116;-78
2022/11/22 11:59:39;;;;;;;6.35;1.90;;;6.50;99.90;;;;;;5103388;28;21460;-78
2022/11/22 12:02:26;;;;;;;5.22;2.03;;;7.60;99.90;;;;;;5106006;28;20054;-78
2022/11/22 12:04:58;;;;;;;7.80;2.40;;;7.60;99.90;;;;;;5103039;28;20050;-78
2022/11/22 12:07:34;;;;;;;5.60;1.63;;;7.70;99.90;;;;;;5106582;27;20078;-79
2022/11/22 12:10:01;;;;;;;6.38;2.13;;;7.80;99.90;;;;;;5108013;28;21074;-79
2022/11/22 12:12:50;;;;;;;6.38;2.42;;;7.80;99.90;;;;;;5103652;27;20052;-79
2022/11/22 12:15:42;;;;;;;4.97;1.75;;;7.90;99.90;;;;;;5110588;28;20050;-79
2022/11/22 12:18:34;;;;;;;3.92;1.60;;;7.90;99.90;;;;;;5107089;28;20184;-79
2022/11/22 12:21:18;;;;;;;6.10;2.58;;;7.90;99.90;;;;;;5108989;28;20534;-79
2022/11/22 12:24:06;;;;;;;7.68;2.00;;;7.90;99.90;;;;;;5108757;28;20059;-79
2022/11/22 12:26:34;;;;;;;5.90;2.10;;;7.90;99.90;;;;;;5107305;28;20050;-79
2022/11/22 12:29:00;;;;;;;6.57;2.33;;;7.80;99.90;;;;;;5109218;28;20044;-79
2022/11/22 12:31:35;;;;;;;6.15;2.03;;;7.90;99.90;;;;;;5110600;28;20481;-78
2022/11/22 12:34:16;;;;;;;4.93;2.10;;;7.80;99.90;;;;;;5106301;28;20447;-79
2022/11/22 12:37:21;;;;;;;5.10;2.05;;;7.90;99.90;;;;;;5104614;28;20048;-79
2022/11/22 12:39:50;;;;;;;6.78;2.63;;;7.90;99.90;;;;;;5102245;28;20040;-79
2022/11/22 12:42:22;;;;;;;6.97;1.77;;;7.80;99.90;;;;;;5110737;28;20054;-79
2022/11/22 12:45:03;;;;;;;5.13;2.08;;;7.80;99.90;;;;;;5109295;27;20058;-78
2022/11/22 12:47:35;;;;;;;5.35;2.05;;;7.70;99.90;;;;;;5108451;28;20039;-79
2022/11/22 12:50:17;;;;;;;5.97;1.85;;;7.70;99.90;;;;;;5107382;28;20046;-78
2022/11/22 12:52:57;;;;;;;4.97;1.83;;;7.70;99.90;;;;;;5105886;28;20497;-78
2022/11/22 12:55:24;;;;;;;6.90;1.80;;;8.00;99.90;;;;;;5108975;28;20048;-79
2022/11/22 12:57:58;;;;;;;7.30;1.65;;;7.60;99.90;;;;;;5106695;28;20048;-78
2022/11/22 13:00:27;;;;;;;6.15;1.98;;;7.60;99.90;;;;;;5108323;28;20089;-78
2022/11/22 13:03:06;;;;;;;3.35;1.55;;;7.60;99.90;;;;;;5107723;28;20083;-78
2022/11/22 13:05:52;;;;;;;4.00;2.15;;;7.60;99.90;;;;;;5106840;28;20134;-78
2022/11/22 13:08:30;;;;;;;4.05;1.40;;;9.30;99.90;;;;;;5089465;28;20078;-78
2022/11/22 13:11:02;;;;;;;3.22;1.15;;;7.50;99.90;;;;;;5108571;28;20036;-78
2022/11/22 13:13:50;;;;;;;6.70;1.42;;;7.50;99.90;;;;;;5108057;28;20047;-78
2022/11/22 13:16:16;;;;;;;4.45;1.45;;;7.50;99.90;;;;;;5107183;28;20382;-78
2022/11/22 13:18:53;;;;;;;2.75;1.50;;;7.20;99.90;;;;;;5108176;28;20043;-78